Time;durP1;ratioP1;P1;durP2;ratioP2;P2;SDS_P1;SDS_P2;PMS_P1;PMS_P2;Temp;Humidity;BMP_temperature;BMP_pressure;BME280_temperature;BME280_humidity;BME280_pressure;Samples;Min_cycle;Max_cycle;Signal;HPM_P1;HPM_P2
2024/02/25 00:01:19;;;;;;;6.55;3.85;;;;;;;4.27;84.52;99654.44;5059096;28;20068;-83
2024/02/25 00:03:46;;;;;;;6.25;3.30;;;;;;;4.31;84.15;99648.84;5059542;28;20094;-82
2024/02/25 00:06:15;;;;;;;5.25;3.60;;;;;;;4.35;84.75;99643.41;5059935;28;20072;-83
2024/02/25 00:08:42;;;;;;;5.38;3.42;;;;;;;4.35;84.56;99652.09;5060210;28;20415;-82
2024/02/25 00:11:08;;;;;;;5.75;3.75;;;;;;;4.39;84.57;99644.81;5060081;28;20080;-83
2024/02/25 00:13:35;;;;;;;5.32;3.60;;;;;;;4.36;84.03;99635.41;5060274;28;20061;-81
2024/02/25 00:16:04;;;;;;;6.50;3.38;;;;;;;4.44;83.78;99640.88;5059206;28;20442;-82
2024/02/25 00:18:30;;;;;;;4.38;3.00;;;;;;;4.49;83.51;99630.88;5060356;28;20237;-83
2024/02/25 00:20:57;;;;;;;4.47;3.35;;;;;;;4.44;83.88;99638.28;5059378;28;20128;-83
2024/02/25 00:23:23;;;;;;;6.75;3.13;;;;;;;4.40;84.00;99633.38;5060280;28;20084;-83
2024/02/25 00:25:50;;;;;;;5.00;3.08;;;;;;;4.46;84.00;99635.53;5059383;28;20124;-83
2024/02/25 00:28:19;;;;;;;4.80;2.90;;;;;;;4.57;82.18;99633.75;5058180;28;20076;-83
2024/02/25 00:30:46;;;;;;;4.63;2.92;;;;;;;4.66;82.01;99634.81;5039339;28;20140;-83
2024/02/25 00:33:14;;;;;;;3.38;2.60;;;;;;;4.68;81.78;99637.28;5039233;28;20109;-81
2024/02/25 00:35:41;;;;;;;3.88;2.70;;;;;;;4.66;81.59;99633.97;5038177;28;20136;-83
2024/02/25 00:38:09;;;;;;;6.97;2.60;;;;;;;4.70;81.44;99630.16;5053116;28;20084;-83
2024/02/25 00:40:36;;;;;;;3.13;2.15;;;;;;;4.83;79.82;99628.22;5057179;28;20064;-83
2024/02/25 00:43:03;;;;;;;5.00;2.85;;;;;;;4.87;79.77;99629.66;5058302;28;20060;-82
2024/02/25 00:45:29;;;;;;;3.53;2.67;;;;;;;4.87;79.77;99631.44;5056857;28;20136;-81
2024/02/25 00:47:56;;;;;;;3.95;2.75;;;;;;;4.84;80.43;99616.78;5055331;28;20135;-82
2024/02/25 00:50:24;;;;;;;3.60;2.42;;;;;;;4.89;79.79;99617.25;5059232;28;20169;-83
2024/02/25 00:52:53;;;;;;;3.90;2.70;;;;;;;4.89;79.83;99621.66;5061223;28;20049;-82
2024/02/25 00:55:20;;;;;;;5.38;2.55;;;;;;;4.91;79.73;99617.97;5060630;28;20084;-82
2024/02/25 00:57:47;;;;;;;3.70;2.70;;;;;;;4.91;80.23;99614.50;5059859;28;20094;-80
2024/02/25 01:00:14;;;;;;;4.72;2.80;;;;;;;4.96;79.70;99615.81;5062030;28;20083;-82
2024/02/25 01:02:45;;;;;;;3.92;2.88;;;;;;;4.96;79.98;99625.47;5066274;28;20083;-82
2024/02/25 01:05:11;;;;;;;4.22;2.78;;;;;;;4.94;79.75;99616.88;5072068;28;20063;-82
2024/02/25 01:07:39;;;;;;;3.08;2.70;;;;;;;4.90;79.49;99618.06;5072786;28;20060;-80
2024/02/25 01:10:07;;;;;;;5.95;2.88;;;;;;;4.90;80.00;99624.16;5074273;28;20049;-82
2024/02/25 01:12:33;;;;;;;5.22;2.85;;;;;;;4.86;79.85;99620.09;5067745;28;20080;-82
2024/02/25 01:15:03;;;;;;;4.32;2.95;;;;;;;4.73;80.60;99616.78;5064906;28;20048;-83
2024/02/25 01:17:29;;;;;;;5.82;3.08;;;;;;;4.78;80.42;99617.28;5064967;28;20388;-82
2024/02/25 01:19:56;;;;;;;3.65;2.85;;;;;;;4.76;80.18;99619.19;5066841;28;20084;-81
2024/02/25 01:22:22;;;;;;;3.42;2.75;;;;;;;4.68;80.65;99611.91;5065670;28;20049;-82
2024/02/25 01:24:50;;;;;;;6.22;2.85;;;;;;;4.67;80.70;99615.50;5065123;28;20468;-82
2024/02/25 01:27:20;;;;;;;4.60;3.00;;;;;;;4.61;80.53;99617.78;5064072;28;20133;-82
2024/02/25 01:29:47;;;;;;;7.13;2.90;;;;;;;4.68;80.98;99617.16;5065090;28;20076;-81
2024/02/25 01:32:16;;;;;;;3.95;2.97;;;;;;;4.76;80.46;99613.94;5068216;28;20135;-80
2024/02/25 01:34:42;;;;;;;3.70;2.83;;;;;;;4.70;80.73;99610.03;5067603;28;20059;-81
2024/02/25 01:37:11;;;;;;;6.00;3.20;;;;;;;4.73;80.33;99608.94;5065979;28;20056;-81
2024/02/25 01:39:38;;;;;;;3.50;2.88;;;;;;;4.65;81.07;99616.59;5064567;28;20131;-82
2024/02/25 01:42:07;;;;;;;4.30;3.20;;;;;;;4.64;80.78;99620.13;5064768;28;20049;-82
2024/02/25 01:44:36;;;;;;;4.97;3.15;;;;;;;4.68;81.07;99617.16;5062727;28;20080;-81
2024/02/25 01:47:03;;;;;;;6.70;3.60;;;;;;;4.68;80.38;99626.81;5060619;28;20041;-83
2024/02/25 01:49:30;;;;;;;3.35;3.00;;;;;;;4.72;81.14;99623.00;5042292;28;20049;-82
2024/02/25 01:51:56;;;;;;;5.85;3.47;;;;;;;4.73;80.85;99624.66;5055650;28;20140;-83
2024/02/25 01:54:23;;;;;;;4.40;3.30;;;;;;;4.71;80.18;99626.56;5060777;28;20084;-83
2024/02/25 01:56:50;;;;;;;4.85;3.38;;;;;;;4.78;80.85;99612.03;5061415;28;20129;-84
2024/02/25 01:59:17;;;;;;;4.82;3.45;;;;;;;4.76;80.34;99613.94;5060361;28;20127;-83
2024/02/25 02:01:44;;;;;;;5.07;3.10;;;;;;;4.73;80.75;99614.16;5064785;28;20092;-83
2024/02/25 02:04:12;;;;;;;4.78;3.35;;;;;;;4.68;81.39;99611.91;5069747;28;20087;-83
2024/02/25 02:06:39;;;;;;;5.32;3.20;;;;;;;4.64;80.99;99604.41;5071285;28;20052;-82
2024/02/25 02:09:06;;;;;;;5.43;3.50;;;;;;;4.68;80.55;99605.84;5070325;28;20060;-83
2024/02/25 02:11:33;;;;;;;3.78;2.95;;;;;;;4.68;81.69;99611.09;5070582;28;20554;-80
2024/02/25 02:14:00;;;;;;;4.53;3.38;;;;;;;4.67;81.20;99614.66;5070014;28;20056;-82
2024/02/25 02:16:28;;;;;;;4.35;2.88;;;;;;;4.65;81.30;99603.50;5070238;28;20048;-81
2024/02/25 02:18:54;;;;;;;3.20;2.67;;;;;;;4.64;81.27;99610.50;5068368;28;20053;-80
2024/02/25 02:21:23;;;;;;;4.63;3.47;;;;;;;4.59;81.76;99610.03;5068996;28;20120;-81
2024/02/25 02:23:50;;;;;;;3.92;3.00;;;;;;;4.49;82.36;99603.84;5063096;28;20045;-82
2024/02/25 02:26:17;;;;;;;5.05;2.50;;;;;;;4.48;82.70;99616.13;5062372;28;20048;-81
2024/02/25 02:28:43;;;;;;;3.45;2.80;;;;;;;4.47;82.02;99614.47;5062397;28;20077;-82
2024/02/25 02:31:10;;;;;;;5.65;2.83;;;;;;;4.52;81.92;99617.56;5060461;28;20105;-82
2024/02/25 02:33:38;;;;;;;3.92;2.63;;;;;;;4.62;81.22;99606.34;5060431;28;20056;-81
2024/02/25 02:36:06;;;;;;;4.78;2.10;;;;;;;4.63;80.92;99610.63;5060916;28;20087;-82
2024/02/25 02:38:34;;;;;;;2.97;2.00;;;;;;;4.67;80.78;99612.03;5060358;28;20049;-83
2024/02/25 02:41:01;;;;;;;3.58;2.17;;;;;;;4.76;80.30;99613.94;5060656;28;20083;-81
2024/02/25 02:43:28;;;;;;;2.88;1.95;;;;;;;4.76;80.60;99614.75;5061655;28;20081;-82
2024/02/25 02:45:55;;;;;;;3.13;2.05;;;;;;;4.84;80.08;99602.84;5053205;28;20081;-82
2024/02/25 02:48:21;;;;;;;2.95;1.55;;;;;;;4.87;79.79;99616.56;5057872;28;20056;-82
2024/02/25 02:50:50;;;;;;;2.45;1.92;;;;;;;4.94;79.53;99612.47;5060278;28;20141;-80
2024/02/25 02:53:17;;;;;;;3.63;2.50;;;;;;;4.99;79.60;99619.97;5060571;28;20087;-83
2024/02/25 02:55:49;;;;;;;2.53;2.22;;;;;;;5.01;79.42;99618.88;5060823;28;20087;-83
2024/02/25 02:58:16;;;;;;;2.03;1.77;;;;;;;5.00;79.62;99604.13;5061120;28;20049;-81
2024/02/25 03:00:44;;;;;;;1.80;1.50;;;;;;;4.93;79.71;99609.97;5061256;28;20143;-82
2024/02/25 03:03:14;;;;;;;1.63;1.52;;;;;;;4.86;79.86;99599.13;5060816;28;20072;-82
2024/02/25 03:05:41;;;;;;;1.92;1.52;;;;;;;4.89;80.55;99603.31;5061853;28;20053;-82
2024/02/25 03:08:12;;;;;;;4.28;2.28;;;;;;;4.85;80.23;99596.63;5062299;28;20068;-81
2024/02/25 03:10:39;;;;;;;1.95;1.73;;;;;;;4.83;80.55;99599.41;5068665;28;20064;-80
2024/02/25 03:19:00;;;;;;;2.60;1.80;;;;;;;4.86;80.61;99599.13;4988366;28;20126;-82
2024/02/25 03:21:26;;;;;;;1.98;1.70;;;;;;;4.87;80.61;99594.75;5056267;28;20045;-83
2024/02/25 03:23:53;;;;;;;4.28;2.00;;;;;;;4.90;80.03;99597.94;5057669;28;20077;-82
2024/02/25 03:26:21;;;;;;;2.03;1.75;;;;;;;4.88;81.10;99597.22;5057830;28;20072;-83
2024/02/25 03:28:49;;;;;;;2.22;1.70;;;;;;;4.88;80.48;99607.72;5057619;28;20463;-81
2024/02/25 03:31:15;;;;;;;1.48;1.38;;;;;;;4.89;80.73;99606.75;5058007;28;20103;-81
2024/02/25 03:33:42;;;;;;;4.13;2.35;;;;;;;4.90;80.55;99603.16;5058073;28;20144;-81
2024/02/25 03:36:08;;;;;;;2.90;2.33;;;;;;;4.85;80.88;99599.25;5056796;28;20574;-82
2024/02/25 03:38:41;;;;;;;2.80;2.38;;;;;;;4.85;81.41;99602.72;5060793;28;20078;-81
2024/02/25 03:41:08;;;;;;;4.15;2.67;;;;;;;4.83;81.18;99604.63;5063173;28;20060;-81
2024/02/25 03:43:35;;;;;;;3.58;2.25;;;;;;;4.76;81.99;99606.91;5069809;28;20049;-81
2024/02/25 03:46:03;;;;;;;3.20;2.13;;;;;;;4.79;82.53;99601.44;5064280;28;20079;-81
2024/02/25 03:48:29;;;;;;;3.00;1.90;;;;;;;4.74;82.60;99600.97;5057756;28;20132;-81
2024/02/25 03:51:02;;;;;;;2.15;1.83;;;;;;;4.72;82.94;99602.03;5057813;28;20087;-79
2024/02/25 03:53:29;;;;;;;2.05;1.83;;;;;;;4.73;82.96;99601.06;5048983;28;20079;-81
2024/02/25 03:55:55;;;;;;;1.83;1.73;;;;;;;4.74;82.88;99606.19;5051181;28;20049;-82
2024/02/25 04:01:05;;;;;;;1.75;1.58;;;;;;;4.82;82.40;99602.94;5015982;28;20389;-82
2024/02/25 04:03:34;;;;;;;1.95;1.80;;;;;;;4.84;81.83;99603.69;5018162;28;20046;-81
2024/02/25 04:06:00;;;;;;;2.25;1.80;;;;;;;4.80;82.62;99599.63;5017777;28;20053;-82
2024/02/25 04:10:57;;;;;;;1.95;1.65;;;;;;;4.85;82.35;99591.41;5017870;28;20064;-82
2024/02/25 04:13:23;;;;;;;1.75;1.65;;;;;;;4.90;81.69;99599.72;5017730;28;20069;-81
2024/02/25 04:15:50;;;;;;;1.90;1.73;;;;;;;4.80;83.00;99597.84;5029953;28;20049;-82
2024/02/25 04:18:18;;;;;;;2.10;1.45;;;;;;;4.80;83.17;99610.94;5021391;28;20125;-81
2024/02/25 04:20:45;;;;;;;1.90;1.67;;;;;;;4.80;82.92;99599.63;5030927;28;20080;-82
2024/02/25 04:23:12;;;;;;;1.90;1.70;;;;;;;4.80;83.55;99613.56;5059250;22;20060;-80
2024/02/25 04:25:38;;;;;;;2.30;2.05;;;;;;;4.77;83.57;99605.94;5036190;28;20132;-80
2024/02/25 04:28:05;;;;;;;2.55;1.80;;;;;;;4.79;83.26;99603.22;5036403;28;20084;-79
2024/02/25 04:30:32;;;;;;;2.20;2.00;;;;;;;4.84;83.91;99606.28;5036744;28;20080;-79
2024/02/25 04:32:59;;;;;;;2.35;1.90;;;;;;;4.89;83.58;99603.31;5036400;28;20052;-78
2024/02/25 04:35:28;;;;;;;2.58;2.35;;;;;;;4.91;84.49;99601.38;5035299;28;20107;-79
2024/02/25 04:37:54;;;;;;;2.88;2.50;;;;;;;4.83;84.65;99607.25;5039200;28;20414;-79
2024/02/25 04:40:25;;;;;;;2.72;2.30;;;;;;;4.85;85.16;99605.34;5039371;28;20440;-79
2024/02/25 04:42:52;;;;;;;3.80;2.35;;;;;;;4.85;84.64;99602.72;5035964;28;20087;-79
2024/02/25 04:45:18;;;;;;;5.53;2.47;;;;;;;4.84;84.99;99606.28;5042937;28;20423;-78
2024/02/25 04:47:45;;;;;;;5.88;3.13;;;;;;;4.78;85.41;99610.25;5039262;28;20045;-78
2024/02/25 04:50:12;;;;;;;4.55;2.35;;;;;;;4.74;86.25;99605.38;5038001;28;20538;-78
2024/02/25 04:52:40;;;;;;;5.22;2.83;;;;;;;4.79;85.55;99608.47;5039851;28;20077;-79
2024/02/25 04:55:07;;;;;;;5.55;2.92;;;;;;;4.79;85.59;99616.31;5043673;28;20090;-79
2024/02/25 04:57:36;;;;;;;3.45;2.85;;;;;;;4.73;86.35;99608.94;5043637;28;20084;-79
2024/02/25 05:00:04;;;;;;;3.20;2.25;;;;;;;4.68;87.03;99611.09;5035984;28;20080;-79
2024/02/25 05:02:31;;;;;;;4.35;3.00;;;;;;;4.71;86.90;99601.19;5036143;28;20584;-78
2024/02/25 05:04:58;;;;;;;4.15;2.58;;;;;;;4.62;87.71;99603.72;5036496;28;20045;-78
2024/02/25 05:07:24;;;;;;;4.65;2.83;;;;;;;4.61;87.59;99609.94;5039861;28;20133;-78
2024/02/25 05:09:52;;;;;;;3.30;2.78;;;;;;;4.60;88.20;99608.22;5046941;28;20038;-78
2024/02/25 05:12:21;;;;;;;3.08;2.75;;;;;;;4.59;87.89;99606.56;5046912;28;20049;-78
2024/02/25 05:14:49;;;;;;;4.40;3.10;;;;;;;4.51;88.45;99605.41;5040992;28;20132;-79
2024/02/25 05:17:16;;;;;;;4.72;3.20;;;;;;;4.54;88.17;99605.16;5040147;28;20112;-80
2024/02/25 05:19:42;;;;;;;4.18;2.67;;;;;;;4.51;88.08;99604.59;5038531;28;20076;-80
2024/02/25 05:22:09;;;;;;;4.25;3.13;;;;;;;4.54;88.58;99613.00;5039940;28;20072;-79
2024/02/25 05:24:36;;;;;;;3.50;3.00;;;;;;;4.57;89.12;99614.56;5039640;28;20049;-79
2024/02/25 05:27:04;;;;;;;3.88;3.00;;;;;;;4.59;88.37;99622.28;5039271;28;20046;-80
2024/02/25 05:29:31;;;;;;;3.50;2.90;;;;;;;4.61;88.20;99608.13;5040031;28;20068;-80
2024/02/25 05:31:57;;;;;;;4.90;2.97;;;;;;;4.62;88.16;99622.91;5039516;28;20088;-80
2024/02/25 05:34:24;;;;;;;4.30;3.17;;;;;;;4.64;88.64;99617.53;5041266;28;20613;-80
2024/02/25 05:36:51;;;;;;;3.70;3.20;;;;;;;4.60;89.24;99618.72;5039110;28;20089;-79
2024/02/25 05:39:17;;;;;;;3.95;3.30;;;;;;;4.62;88.80;99609.78;5039050;28;20113;-80
2024/02/25 05:41:44;;;;;;;3.92;3.28;;;;;;;4.51;88.79;99621.13;5038386;28;20091;-80
2024/02/25 05:44:12;;;;;;;5.63;3.28;;;;;;;4.52;90.07;99621.97;5039476;28;20113;-80
2024/02/25 05:46:39;;;;;;;3.60;3.30;;;;;;;4.48;90.57;99623.16;5036610;28;20050;-79
2024/02/25 05:49:06;;;;;;;3.97;3.40;;;;;;;4.52;90.49;99633.28;5036733;28;20503;-79
2024/02/25 05:51:34;;;;;;;4.90;3.10;;;;;;;4.56;90.27;99628.63;5035848;28;20107;-79
2024/02/25 05:54:00;;;;;;;2.97;2.60;;;;;;;4.61;90.42;99628.25;5038759;28;20073;-80
2024/02/25 05:56:27;;;;;;;3.33;2.92;;;;;;;4.62;91.20;99627.31;5039395;28;20053;-80
2024/02/25 05:58:54;;;;;;;3.72;3.03;;;;;;;4.60;91.24;99629.19;5039270;28;20616;-80
2024/02/25 06:01:22;;;;;;;5.18;2.88;;;;;;;4.61;90.58;99625.66;5038675;28;20060;-80
2024/02/25 06:03:49;;;;;;;4.10;3.00;;;;;;;4.61;90.07;99625.66;5038051;28;20403;-79
2024/02/25 06:06:17;;;;;;;3.55;2.85;;;;;;;4.73;89.18;99625.50;5036818;28;20136;-79
2024/02/25 06:08:43;;;;;;;3.40;2.90;;;;;;;4.77;88.82;99631.31;5030287;28;20053;-80
2024/02/25 06:11:10;;;;;;;5.68;3.50;;;;;;;4.68;89.79;99632.06;5038233;28;20068;-80
2024/02/25 06:13:37;;;;;;;4.28;3.10;;;;;;;4.69;90.43;99641.59;5038960;28;20462;-81
2024/02/25 06:16:04;;;;;;;4.55;3.35;;;;;;;4.67;89.96;99635.63;5039457;28;20073;-81
2024/02/25 06:18:32;;;;;;;5.43;3.67;;;;;;;4.55;90.20;99633.03;5038378;28;20037;-80
2024/02/25 06:20:58;;;;;;;3.78;3.40;;;;;;;4.52;91.08;99624.59;5040981;28;20443;-79
2024/02/25 06:23:25;;;;;;;4.50;3.85;;;;;;;4.60;90.00;99630.06;5040606;28;20111;-79
2024/02/25 06:25:56;;;;;;;10.23;3.55;;;;;;;4.53;90.05;99628.84;5040729;28;20096;-79
2024/02/25 06:28:22;;;;;;;4.70;3.22;;;;;;;4.56;89.53;99629.47;5041229;28;20181;-79
2024/02/25 06:30:49;;;;;;;4.18;3.53;;;;;;;4.60;89.98;99640.53;5038724;28;20108;-78
2024/02/25 06:33:16;;;;;;;4.35;2.95;;;;;;;4.57;89.93;99636.34;5040791;28;20069;-81
2024/02/25 06:35:44;;;;;;;5.43;3.17;;;;;;;4.60;89.22;99642.28;5038247;28;20050;-79
2024/02/25 06:38:10;;;;;;;4.47;3.17;;;;;;;4.60;89.42;99639.69;5037743;28;20129;-80
2024/02/25 06:40:37;;;;;;;3.70;2.92;;;;;;;4.60;88.98;99642.28;5035895;28;20096;-80
2024/02/25 06:43:08;;;;;;;3.47;2.70;;;;;;;4.64;88.41;99633.25;5035729;28;20045;-80
2024/02/25 06:45:35;;;;;;;3.30;2.47;;;;;;;4.81;87.53;99638.81;5038537;28;20182;-81
2024/02/25 06:48:01;;;;;;;2.40;2.17;;;;;;;4.83;87.07;99641.34;5044595;28;20113;-79
2024/02/25 06:50:29;;;;;;;2.60;2.05;;;;;;;4.96;86.02;99641.19;5040339;28;20049;-79
2024/02/25 06:52:57;;;;;;;2.40;1.95;;;;;;;4.97;85.72;99643.69;5040181;28;20115;-79
2024/02/25 06:55:24;;;;;;;2.80;1.70;;;;;;;4.97;86.77;99646.31;5039061;28;20408;-78
2024/02/25 06:57:51;;;;;;;2.65;2.05;;;;;;;5.03;85.53;99644.97;5038839;28;20113;-80
2024/02/25 07:00:18;;;;;;;2.05;1.85;;;;;;;5.07;85.75;99657.72;5041810;28;20128;-78
2024/02/25 07:02:45;;;;;;;1.80;1.67;;;;;;;5.12;85.29;99651.28;5030001;28;20487;-78
2024/02/25 07:05:11;;;;;;;2.00;1.80;;;;;;;5.14;85.61;99644.13;5038097;28;20041;-79
2024/02/25 07:07:38;;;;;;;1.85;1.70;;;;;;;5.21;84.18;99656.59;5036825;28;20046;-79
2024/02/25 07:10:07;;;;;;;3.13;2.38;;;;;;;5.21;83.98;99651.34;5037782;28;20046;-79
2024/02/25 07:12:34;;;;;;;2.10;1.75;;;;;;;5.19;84.34;99657.69;5039913;28;20128;-80
2024/02/25 07:15:01;;;;;;;4.00;2.15;;;;;;;5.23;85.02;99654.69;5042754;28;20049;-79
2024/02/25 07:17:27;;;;;;;3.13;2.78;;;;;;;5.27;84.89;99653.50;5043229;28;20456;-80
2024/02/25 07:19:54;;;;;;;5.20;2.90;;;;;;;5.35;83.82;99660.72;5042110;28;20408;-80
2024/02/25 07:22:20;;;;;;;3.55;2.67;;;;;;;5.34;83.84;99659.06;5042953;28;20052;-80
2024/02/25 07:24:47;;;;;;;2.40;2.20;;;;;;;5.31;84.26;99654.91;5041249;28;20108;-79
2024/02/25 07:27:15;;;;;;;2.45;2.00;;;;;;;5.41;83.27;99662.88;5042283;28;20075;-80
2024/02/25 07:29:42;;;;;;;3.55;2.72;;;;;;;5.48;83.15;99660.56;5041696;28;20077;-80
2024/02/25 07:32:08;;;;;;;2.22;2.03;;;;;;;5.55;82.55;99657.31;5041364;28;20045;-79
2024/02/25 07:34:35;;;;;;;2.65;2.00;;;;;;;5.53;81.88;99661.84;5040859;28;20046;-80
2024/02/25 07:37:02;;;;;;;2.28;1.67;;;;;;;5.54;81.77;99655.66;5040407;28;20091;-80
2024/02/25 07:39:29;;;;;;;1.40;1.27;;;;;;;5.59;81.63;99660.53;5041056;28;20458;-79
2024/02/25 07:41:55;;;;;;;1.63;1.30;;;;;;;5.60;81.39;99664.81;5039411;28;20084;-80
2024/02/25 07:44:23;;;;;;;1.98;1.63;;;;;;;5.61;81.90;99663.03;5038758;28;20050;-79
2024/02/25 07:46:50;;;;;;;1.92;1.42;;;;;;;5.65;82.11;99661.81;5039598;28;20084;-79
2024/02/25 07:49:16;;;;;;;3.40;2.05;;;;;;;5.68;82.87;99669.44;5039950;28;20117;-78
2024/02/25 07:51:43;;;;;;;2.35;2.10;;;;;;;5.66;82.55;99668.72;5036106;28;20128;-80
2024/02/25 07:54:11;;;;;;;2.88;2.58;;;;;;;5.70;81.76;99664.88;5040075;28;20045;-80
2024/02/25 07:56:37;;;;;;;3.60;2.42;;;;;;;5.71;82.66;99670.00;5037999;28;20112;-79
2024/02/25 07:59:04;;;;;;;2.88;2.47;;;;;;;5.80;82.17;99668.41;5037630;28;20129;-79
2024/02/25 08:01:34;;;;;;;3.20;2.05;;;;;;;5.80;82.32;99674.50;5037044;28;20079;-80
2024/02/25 08:04:01;;;;;;;5.82;3.53;;;;;;;5.86;83.05;99667.91;5037539;28;20487;-80
2024/02/25 08:06:28;;;;;;;6.28;3.50;;;;;;;5.95;82.22;99668.97;5036478;28;20073;-80
2024/02/25 08:08:55;;;;;;;8.55;4.28;;;;;;;5.98;81.64;99677.44;5037850;28;20049;-81
2024/02/25 08:11:21;;;;;;;10.20;5.20;;;;;;;6.00;81.92;99672.03;5041138;28;20083;-80
2024/02/25 08:13:48;;;;;;;9.38;4.78;;;;;;;6.05;81.90;99677.75;5040404;28;20084;-82
2024/02/25 08:16:14;;;;;;;7.15;4.20;;;;;;;6.14;81.82;99682.22;5042169;28;20136;-78
2024/02/25 08:18:57;;;;;;;4.28;2.80;;;;;;;6.26;80.92;99685.63;5044277;28;20048;-78
2024/02/25 08:21:24;;;;;;;2.90;2.15;;;;;;;6.43;78.58;99671.88;5046788;28;20411;-80
2024/02/25 08:23:51;;;;;;;3.28;2.70;;;;;;;6.62;79.10;99680.81;5046712;28;20049;-80
2024/02/25 08:26:18;;;;;;;2.65;1.88;;;;;;;6.65;77.99;99677.88;5043441;28;20049;-81
2024/02/25 08:28:45;;;;;;;3.40;2.10;;;;;;;6.53;77.25;99685.88;5045886;28;20041;-80
2024/02/25 08:31:11;;;;;;;2.70;2.17;;;;;;;6.55;77.91;99685.75;5047325;28;20045;-79
2024/02/25 08:33:39;;;;;;;2.72;1.63;;;;;;;6.59;76.84;99679.25;5047362;28;20057;-79
2024/02/25 08:36:08;;;;;;;1.52;1.42;;;;;;;6.77;76.26;99676.84;5046141;28;20053;-78
2024/02/25 08:38:35;;;;;;;2.10;1.70;;;;;;;6.92;76.33;99679.91;5047682;28;20042;-80
2024/02/25 08:41:19;;;;;;;2.30;1.50;;;;;;;6.84;75.66;99675.34;5046079;28;20060;-80
2024/02/25 08:43:46;;;;;;;1.73;1.42;;;;;;;6.82;75.56;99685.16;5038386;28;20053;-79
2024/02/25 08:46:12;;;;;;;5.65;1.88;;;;;;;6.81;75.86;99675.59;5041827;28;20483;-78
2024/02/25 08:48:39;;;;;;;3.88;1.67;;;;;;;6.87;75.97;99676.88;5041452;28;20105;-80
2024/02/25 08:51:07;;;;;;;1.42;1.25;;;;;;;7.00;74.86;99680.91;5049459;28;20061;-81
2024/02/25 08:53:34;;;;;;;2.60;1.60;;;;;;;7.08;73.41;99667.91;5050923;28;20148;-77
2024/02/25 08:56:01;;;;;;;3.70;1.83;;;;;;;7.10;73.64;99680.97;5047144;28;20073;-80
2024/02/25 08:58:28;;;;;;;3.38;2.85;;;;;;;7.17;73.39;99668.06;5046122;28;20056;-79
2024/02/25 09:00:54;;;;;;;4.18;2.47;;;;;;;7.19;73.22;99671.38;5043561;28;20057;-80
2024/02/25 09:03:21;;;;;;;4.07;3.47;;;;;;;7.20;73.29;99675.72;5043440;28;20077;-81
2024/02/25 09:05:48;;;;;;;2.13;1.55;;;;;;;7.34;72.47;99672.69;5043534;28;20068;-81
2024/02/25 09:08:16;;;;;;;6.43;4.85;;;;;;;7.37;73.24;99674.19;5039170;28;20400;-82
2024/02/25 09:10:43;;;;;;;3.25;1.58;;;;;;;7.30;72.77;99666.84;5042890;28;20049;-79
2024/02/25 09:13:09;;;;;;;2.45;1.77;;;;;;;7.42;72.23;99662.31;5042289;28;20095;-80
2024/02/25 09:15:36;;;;;;;2.60;2.03;;;;;;;7.52;72.20;99671.03;5042419;28;20136;-81
2024/02/25 09:18:03;;;;;;;2.33;1.58;;;;;;;7.64;70.04;99669.09;5042819;28;20144;-81
2024/02/25 09:20:33;;;;;;;2.50;2.00;;;;;;;7.78;70.42;99665.19;5041061;28;20045;-79
2024/02/25 09:23:01;;;;;;;5.05;3.05;;;;;;;7.77;69.67;99669.63;5042403;28;20049;-79
2024/02/25 09:25:33;;;;;;;13.68;7.13;;;;;;;7.88;69.80;99662.56;5043884;28;20152;-80
2024/02/25 09:28:00;;;;;;;6.22;3.60;;;;;;;7.96;69.92;99662.69;5043484;28;20080;-79
2024/02/25 09:30:26;;;;;;;4.60;3.03;;;;;;;8.01;68.34;99661.28;5043361;28;20099;-80
2024/02/25 09:32:56;;;;;;;4.22;3.40;;;;;;;7.96;68.26;99666.16;5043585;28;20057;-79
2024/02/25 09:35:23;;;;;;;1.40;1.30;;;;;;;7.93;69.68;99666.41;5041252;28;20112;-79
2024/02/25 09:37:57;;;;;;;3.95;3.08;;;;;;;8.05;68.69;99656.56;5041560;28;20080;-79
2024/02/25 09:40:23;;;;;;;2.78;2.55;;;;;;;8.10;68.02;99657.78;5049812;28;20045;-80
2024/02/25 09:42:53;;;;;;;3.67;3.15;;;;;;;8.19;67.95;99655.28;5050332;28;20045;-80
2024/02/25 09:45:21;;;;;;;2.50;2.05;;;;;;;8.32;68.46;99661.06;5042838;28;20054;-79
2024/02/25 09:47:51;;;;;;;3.50;2.25;;;;;;;8.55;67.28;99651.84;5049221;28;20155;-79
2024/02/25 09:50:18;;;;;;;2.80;2.33;;;;;;;8.55;66.03;99654.50;5044776;28;20372;-78
2024/02/25 09:52:46;;;;;;;2.88;1.30;;;;;;;8.81;67.19;99656.47;5029681;28;20089;-78
2024/02/25 09:55:13;;;;;;;2.35;2.08;;;;;;;8.65;65.68;99659.72;5038129;28;20071;-78
2024/02/25 09:57:40;;;;;;;2.40;1.10;;;;;;;8.79;65.43;99648.66;5036473;28;20498;-79
2024/02/25 10:00:10;;;;;;;1.40;1.30;;;;;;;8.93;66.84;99651.78;5037268;28;20046;-79
2024/02/25 10:02:37;;;;;;;1.23;1.10;;;;;;;8.83;64.92;99652.69;5043965;28;20121;-78
2024/02/25 10:05:04;;;;;;;3.50;2.80;;;;;;;8.74;66.25;99655.38;5056298;28;20115;-78
2024/02/25 10:07:31;;;;;;;1.50;1.40;;;;;;;8.72;66.24;99644.16;5044009;28;20060;-79
2024/02/25 10:09:58;;;;;;;2.72;1.23;;;;;;;8.65;66.53;99654.44;5047091;28;20389;-78
2024/02/25 10:12:25;;;;;;;1.60;1.50;;;;;;;8.86;66.35;99648.94;5043284;28;20420;-80
2024/02/25 10:14:53;;;;;;;1.90;1.52;;;;;;;8.99;65.46;99648.59;5045236;28;20049;-79
2024/02/25 10:17:22;;;;;;;3.63;3.00;;;;;;;9.27;64.67;99650.19;5044051;28;20049;-78
2024/02/25 10:20:01;;;;;;;1.40;1.25;;;;;;;9.41;64.35;99630.34;5041731;28;20049;-79
2024/02/25 10:22:29;;;;;;;6.65;4.80;;;;;;;9.30;63.77;99641.97;5063384;22;20060;-79
2024/02/25 10:25:03;;;;;;;3.58;2.55;;;;;;;9.40;63.46;99638.44;5043297;28;20119;-80
2024/02/25 10:27:30;;;;;;;4.55;2.47;;;;;;;9.42;62.75;99637.31;5047652;28;20045;-80
2024/02/25 10:29:58;;;;;;;1.98;1.52;;;;;;;9.25;63.85;99635.50;5053738;28;20128;-81
2024/02/25 10:32:27;;;;;;;3.28;1.10;;;;;;;9.29;63.87;99636.88;5051310;28;20049;-80
2024/02/25 10:34:55;;;;;;;3.22;1.27;;;;;;;9.43;62.42;99633.69;5060621;28;20053;-81
2024/02/25 10:37:23;;;;;;;2.05;1.20;;;;;;;9.46;61.43;99640.47;5058989;28;20080;-79
2024/02/25 10:39:55;;;;;;;2.53;1.92;;;;;;;9.78;60.93;99627.53;5061305;28;20045;-79
2024/02/25 10:42:26;;;;;;;1.77;1.13;;;;;;;9.84;60.01;99626.09;5055855;28;20129;-79
2024/02/25 10:44:54;;;;;;;3.05;1.23;;;;;;;10.02;59.38;99640.09;5061611;28;20136;-79
2024/02/25 10:47:23;;;;;;;3.35;1.42;;;;;;;9.92;59.79;99623.50;5047788;28;20410;-78
2024/02/25 10:49:52;;;;;;;2.17;1.35;;;;;;;9.91;58.97;99631.56;5052173;28;20041;-78
2024/02/25 10:52:20;;;;;;;1.58;1.30;;;;;;;10.03;57.64;99625.88;5053093;28;20053;-78
2024/02/25 10:54:49;;;;;;;2.58;1.35;;;;;;;10.03;58.48;99620.59;5055792;28;20076;-78
2024/02/25 10:57:17;;;;;;;1.83;1.23;;;;;;;9.99;57.90;99619.25;5059259;28;20048;-80
2024/02/25 10:59:46;;;;;;;2.65;1.20;;;;;;;10.02;57.99;99618.94;5059502;28;20113;-78
2024/02/25 11:02:14;;;;;;;3.45;1.60;;;;;;;10.11;58.80;99619.81;5056765;28;20470;-81
2024/02/25 11:04:41;;;;;;;2.13;1.30;;;;;;;10.43;57.70;99616.56;5044588;28;20048;-81
2024/02/25 11:07:09;;;;;;;3.40;1.83;;;;;;;10.79;56.79;99608.44;5051815;28;20037;-80
2024/02/25 11:09:36;;;;;;;1.90;1.50;;;;;;;10.66;55.54;99605.41;5051655;28;20042;-79
2024/02/25 11:12:24;;;;;;;3.42;1.52;;;;;;;10.50;54.76;99598.25;5058479;28;20049;-79
2024/02/25 11:14:53;;;;;;;3.10;1.48;;;;;;;10.65;55.82;99598.47;5044657;28;20049;-79
2024/02/25 11:17:24;;;;;;;2.35;1.85;;;;;;;10.60;56.37;99593.66;5049236;28;20090;-79
2024/02/25 11:19:58;;;;;;;0.82;0.70;;;;;;;10.72;56.38;99596.84;5053369;28;20049;-79
2024/02/25 11:22:51;;;;;;;3.50;1.42;;;;;;;10.82;55.59;99585.13;5049081;28;20532;-79
2024/02/25 11:25:40;;;;;;;6.40;3.50;;;;;;;10.67;55.54;99584.09;5031211;28;20077;-79
2024/02/25 11:28:12;;;;;;;2.00;1.15;;;;;;;10.22;56.03;99581.69;5043630;28;20529;-79
2024/02/25 11:30:43;;;;;;;1.13;1.00;;;;;;;10.13;56.08;99599.34;5050569;28;20049;-79
2024/02/25 11:33:37;;;;;;;1.98;1.80;;;;;;;10.13;55.81;99594.06;5056499;28;20078;-81
2024/02/25 11:36:08;;;;;;;3.67;1.90;;;;;;;10.24;56.79;99585.91;5052378;28;20075;-82
2024/02/25 11:38:36;;;;;;;3.00;1.63;;;;;;;10.13;55.82;99591.41;5047984;28;20113;-84
2024/02/25 11:41:03;;;;;;;1.33;1.20;;;;;;;10.03;56.60;99583.59;5050496;28;20044;-84
2024/02/25 11:43:30;;;;;;;2.95;1.23;;;;;;;10.30;57.15;99585.25;5052472;28;20046;-79
2024/02/25 11:45:57;;;;;;;2.88;1.10;;;;;;;10.41;55.92;99586.81;5048041;28;20053;-80
2024/02/25 11:48:23;;;;;;;3.33;1.17;;;;;;;10.36;56.35;99584.63;5052352;28;20056;-83
2024/02/25 11:50:50;;;;;;;1.85;0.90;;;;;;;10.26;56.65;99577.78;5059087;28;20045;-83
2024/02/25 11:53:18;;;;;;;3.40;1.08;;;;;;;10.11;57.06;99578.34;5050274;28;20038;-84
2024/02/25 11:55:47;;;;;;;2.40;1.05;;;;;;;10.07;56.77;99578.81;5055456;28;20041;-83